Flight Track Log - Related Links

Times and Time Zones

All times are in EDT time to prevent confusion due to time zone crossing. See the N7304T flight status page for this flight to view local times or setup timezone preferences in your user account.

Time Position Orientation Groundspeed Altitude Reporting Facility
EDT Latitude Longitude Course Direction KTS MPH feet Rate Location/Type
Fri 01:33:23 PM 40.2356 -79.3347 80° East 117 135 4,000  Level Cleveland Center
Fri 01:34:24 PM 40.2308 -79.2967 99° East 115 132 4,700 694 Climbing Cleveland Center
Fri 01:35:24 PM 40.2181 -79.2589 114° Southeast 116 133 5,400 694 Climbing Cleveland Center
Fri 01:36:25 PM 40.2092 -79.2183 106° East 109 125 6,100 750 Climbing Cleveland Center
Fri 01:37:32 PM 40.2022 -79.1722 101° East 114 131 7,000 661 Climbing Cleveland Center
Fri 01:38:00 PM 40.3181 -79.0940 80° East  Level Estimated
Fri 01:38:32 PM 40.2122 -79.1286 73° East 133 153 7,500  Level Cleveland Center
Fri 01:39:33 PM 40.2219 -79.0794 75° East 145 167 7,900 347 Climbing Cleveland Center
Fri 01:40:33 PM 40.2336 -79.0275 74° East 143 165 8,200 248 Climbing Cleveland Center
Fri 01:41:34 PM 40.2414 -78.9783 78° East 132 152 8,400 49 Climbing Cleveland Center
Fri 01:42:35 PM 40.2469 -78.9211 83° East 164 189 8,300 -99 Descending Cleveland Center
Fri 01:43:35 PM 40.2503 -78.8639 86° East 160 184 8,200  Descending Cleveland Center
Fri 01:44:36 PM 40.2431 -78.8097 100° East 150 173 8,300 49 Climbing Cleveland Center
Fri 01:45:37 PM 40.2278 -78.7583 111° Southeast 150 173 8,300  Level Cleveland Center
Fri 01:46:37 PM 40.2164 -78.7044 105° East 154 177 8,300 -446 Level Cleveland Center
Fri 01:47:38 PM 40.2278 -78.6389 77° East 180 207 7,400 -893 Descending Cleveland Center
Fri 01:48:38 PM 40.2331 -78.5761 84° East 177 204 6,500 -793 Descending Cleveland Center
Fri 01:49:39 PM 40.2403 -78.5161 81° East 172 198 5,800 -541 Descending Cleveland Center
Fri 01:50:40 PM 40.2369 -78.4564 94° East 164 189 5,400 -248 Descending Cleveland Center
Fri 01:51:40 PM 40.2317 -78.3967 97° East 148 170 5,300  Descending Cleveland Center
Fri 01:52:41 PM 40.2244 -78.3478 101° East 138 159 5,400 49 Climbing Cleveland Center
Fri 01:53:42 PM 40.2233 -78.2936 92° East 148 170 5,400 -52 Level Cleveland Center
Fri 01:54:36 PM 40.2206 -78.2472 94° East 152 175 5,300 -55 Descending Cleveland Center
Fri 01:55:31 PM 40.2256 -78.1956 83° East 156 180 5,300 52 Level Cleveland Center
Fri 01:56:31 PM 40.2328 -78.1381 81° East 155 178 5,400 99 Climbing Cleveland Center
Fri 01:57:32 PM 40.2253 -78.0814 100° East 151 174 5,500 99 Climbing Cleveland Center
Fri 01:58:32 PM 40.2197 -78.0272 98° East 150 173 5,600 -29 Climbing Cleveland Center
Fri 02:00:00 PM 40.2456 -77.9553 65° Northeast  Level FlightAware Approximate
Fri 02:07:00 PM 40.3319 -77.5877 76° East  Level FlightAware Approximate
Fri 02:08:00 PM 40.3415 -77.5349 76° East  Level FlightAware Approximate
Fri 02:09:00 PM 40.3512 -77.4821 76° East  Level FlightAware Approximate
Fri 02:10:00 PM 40.3609 -77.4293 77° East  Level FlightAware Approximate
Fri 02:11:00 PM 40.3705 -77.3764 77° East  Level FlightAware Approximate
Fri 02:12:00 PM 40.3801 -77.3236 77° East  Level FlightAware Approximate
Fri 02:13:00 PM 40.3892 -77.2709 77° East  Level FlightAware Approximate
Fri 02:14:00 PM 40.3983 -77.2182 77° East  Level FlightAware Approximate
Fri 02:15:00 PM 40.4074 -77.1656 77° East  Level FlightAware Approximate
Fri 02:16:00 PM 40.4164 -77.1128 77° East  Level FlightAware Approximate
Fri 02:17:00 PM 40.4255 -77.0601 77° East  Level FlightAware Approximate
Fri 02:18:00 PM 40.4345 -77.0074 77° East  Level FlightAware Approximate
Fri 02:19:00 PM 40.4435 -76.9546 77° East  Level FlightAware Approximate
Fri 02:20:00 PM 40.4524 -76.9019 77° East  Level FlightAware Approximate
Fri 02:21:00 PM 40.4613 -76.8491 77° East  Level FlightAware Approximate
Fri 02:22:00 PM 40.4702 -76.7963 77° East  Level FlightAware Approximate
Fri 02:23:00 PM 40.4791 -76.7435 78° East  Level FlightAware Approximate
Fri 02:24:00 PM 40.4880 -76.6907 78° East  Level FlightAware Approximate
Fri 02:25:00 PM 40.4968 -76.6379 78° East  Level FlightAware Approximate
Fri 02:26:00 PM 40.5056 -76.5850 78° East  Level FlightAware Approximate
Fri 02:27:00 PM 40.5144 -76.5322 78° East  Level FlightAware Approximate
Fri 02:28:00 PM 40.5232 -76.4793 78° East  Level FlightAware Approximate
Fri 02:29:00 PM 40.5320 -76.4264 78° East  Level FlightAware Approximate
Fri 02:30:00 PM 40.5407 -76.3735 78° East  Level FlightAware Approximate
Fri 02:31:00 PM 40.5494 -76.3206 78° East  Level FlightAware Approximate
Fri 02:32:00 PM 40.5582 -76.2678 77° East  Level FlightAware Approximate
Fri 02:33:00 PM 40.5671 -76.2149 78° East  Level FlightAware Approximate
Fri 02:34:00 PM 40.5760 -76.1620 78° East  Level FlightAware Approximate
Fri 02:35:00 PM 40.5848 -76.1091 78° East  Level FlightAware Approximate
Fri 02:36:00 PM 40.5936 -76.0562 78° East  Level FlightAware Approximate
Fri 02:37:00 PM 40.6024 -76.0032 78° East  Level FlightAware Approximate
Fri 02:38:00 PM 40.6111 -75.9503 78° East  Level FlightAware Approximate
Fri 02:39:00 PM 40.6197 -75.8973 78° East  Level FlightAware Approximate
Fri 02:40:00 PM 40.6278 -75.8442 78° East  Level FlightAware Approximate
Fri 02:41:00 PM 40.6360 -75.7910 79° East  Level FlightAware Approximate
Fri 02:42:00 PM 40.6442 -75.7379 79° East  Level FlightAware Approximate
Fri 02:43:00 PM 40.6523 -75.6847 79° East  Level FlightAware Approximate
Fri 02:44:00 PM 40.6604 -75.6316 79° East  Level FlightAware Approximate
Fri 02:45:00 PM 40.6684 -75.5784 79° East  Level FlightAware Approximate
Fri 02:46:00 PM 40.6765 -75.5252 79° East  Level FlightAware Approximate
Fri 02:47:00 PM 40.6845 -75.4720 79° East  Level FlightAware Approximate
Fri 02:48:00 PM 40.6925 -75.4188 79° East  Level FlightAware Approximate
Fri 02:49:00 PM 40.7005 -75.3655 79° East  Level FlightAware Approximate
Fri 02:50:00 PM 40.7084 -75.3123 79° East  Level FlightAware Approximate
Fri 02:51:00 PM 40.7164 -75.2590 79° East  Level FlightAware Approximate
Fri 02:52:00 PM 40.7243 -75.2058 79° East  Level FlightAware Approximate
Fri 02:53:00 PM 40.7321 -75.1525 79° East  Level FlightAware Approximate
Fri 02:54:00 PM 40.7400 -75.0992 79° East  Level FlightAware Approximate
Fri 02:55:00 PM 40.7478 -75.0459 79° East  Level FlightAware Approximate
Fri 02:56:00 PM 40.7556 -74.9926 79° East  Level FlightAware Approximate
Fri 02:56:23 PM 40.7000 -75.1000 79° East 153 176 3,800  Level New York TRACON
Fri 02:57:00 PM 40.7634 -74.9392 79° East  Level FlightAware Approximate
Fri 02:57:23 PM 40.7167 -75.0500 66° East 151 174 3,700  Level New York TRACON
Fri 02:58:00 PM 40.7711 -74.8859 79° East  Level FlightAware Approximate
Fri 02:58:23 PM 40.7333 -75.0000 66° East 149 171 3,700  Level New York TRACON
Fri 02:59:00 PM 40.7788 -74.8325 79° East  Level FlightAware Approximate
Fri 02:59:23 PM 40.7333 -74.9500 90° East 155 178 3,500  Level New York TRACON
Fri 03:00:00 PM 40.7865 -74.7792 79° East  Level FlightAware Approximate
Fri 03:00:29 PM 40.7500 -74.8833 72° East 159 183 3,100  Level New York TRACON
Fri 03:01:00 PM 40.7942 -74.7258 79° East  Level FlightAware Approximate
Fri 03:01:29 PM 40.7667 -74.8333 66° East 148 170 3,000  Level New York TRACON
Fri 03:02:29 PM 40.7833 -74.7833 66° East 145 167 3,000  Level New York TRACON
Fri 03:03:29 PM 40.8000 -74.7333 66° East 141 162 3,000 -53 Level New York TRACON
Fri 03:04:23 PM 40.8167 -74.7000 57° Northeast 147 169 2,900 -211 Descending New York TRACON
Fri 03:05:23 PM 40.8333 -74.6500 66° East 153 176 2,600 -150 Descending New York TRACON
Fri 03:06:23 PM 40.8500 -74.6000 66° East 144 166 2,600 -100 Level New York TRACON
Fri 03:07:23 PM 40.8667 -74.5500 66° East 149 171 2,400 -50 Descending New York TRACON
Fri 03:08:23 PM 40.8667 -74.5000 90° East 138 159 2,500 50 Climbing New York TRACON
Fri 03:09:23 PM 40.8667 -74.4500 90° East 135 155 2,500  Level New York TRACON
Fri 03:10:23 PM 40.8833 -74.4000 66° East 137 158 2,500 -316 Level New York TRACON
Fri 03:11:17 PM 40.8833 -74.3500 90° East 145 167 1,900 -650 Descending New York TRACON
Fri 03:12:23 PM 40.9000 -74.3000 66° East 126 145 1,200 -636 Descending New York TRACON
Fri 03:14:00 PM 40.8752 -74.2814 78° East  Level Estimated
Fri 03:21:00 PM 40.8752 -74.2814 78° East  Level Estimated

Login

Don't have an account? Register now (free) for customized features, flight alerts, and more!